createdAt,value
2018-12-07T00:02:05.614Z,99455.88
2018-12-07T00:04:33.865Z,99454.55
2018-12-07T00:07:02.160Z,99455.77
2018-12-07T00:09:30.331Z,99454.21
2018-12-07T00:11:58.530Z,99449.00
2018-12-07T00:14:26.889Z,99452.94
2018-12-07T00:16:55.084Z,99452.20
2018-12-07T00:19:23.535Z,99456.54
2018-12-07T00:21:51.710Z,99454.50
2018-12-07T00:24:21.170Z,99452.83
2018-12-07T00:26:49.364Z,99439.52
2018-12-07T00:29:17.568Z,99425.82
2018-12-07T00:31:49.276Z,99429.06
2018-12-07T00:34:19.345Z,99439.53
2018-12-07T00:36:50.252Z,99429.95
2018-12-07T00:39:18.554Z,99435.23
2018-12-07T00:41:46.728Z,99430.67
2018-12-07T00:44:14.945Z,99435.71
2018-12-07T00:46:43.125Z,99435.13
2018-12-07T00:49:11.313Z,99429.76
2018-12-07T00:51:39.526Z,99426.12
2018-12-07T00:54:07.724Z,99424.64
2018-12-07T00:56:36.649Z,99416.41
2018-12-07T00:59:05.229Z,99417.45
2018-12-07T01:01:34.876Z,99411.42
2018-12-07T01:04:04.704Z,99412.75
2018-12-07T01:06:34.771Z,99412.36
2018-12-07T01:09:05.757Z,99411.62
2018-12-07T01:11:35.016Z,99407.86
2018-12-07T01:14:03.241Z,99405.95
2018-12-07T01:16:31.964Z,99406.53
2018-12-07T01:19:00.294Z,99400.94
2018-12-07T01:21:28.503Z,99401.68
2018-12-07T01:23:56.733Z,99406.14
2018-12-07T01:26:24.922Z,99399.66
2018-12-07T01:28:53.649Z,99398.60
2018-12-07T01:31:21.973Z,99388.59
2018-12-07T01:33:50.256Z,99380.30
2018-12-07T01:36:18.449Z,99382.02
2018-12-07T01:38:46.664Z,99379.67
2018-12-07T01:41:15.340Z,99380.14
2018-12-07T01:43:43.577Z,99377.13
2018-12-07T01:46:11.861Z,99382.16
2018-12-07T01:48:40.134Z,99375.45
2018-12-07T01:51:08.336Z,99374.35
2018-12-07T01:53:36.530Z,99374.82
2018-12-07T01:56:04.897Z,99367.23
2018-12-07T01:58:33.103Z,99364.93
2018-12-07T02:01:01.284Z,99364.81
2018-12-07T02:03:29.689Z,99359.34
2018-12-07T02:05:58.407Z,99366.94
2018-12-07T02:08:26.798Z,99360.36
2018-12-07T02:10:54.987Z,99356.41
2018-12-07T02:13:23.181Z,99353.44
2018-12-07T02:15:51.508Z,99356.30
2018-12-07T02:18:19.737Z,99351.25
2018-12-07T02:20:48.005Z,99346.36
2018-12-07T02:23:16.169Z,99345.86
2018-12-07T02:25:44.451Z,99349.48
2018-12-07T02:28:12.630Z,99349.25
2018-12-07T02:30:40.929Z,99339.95
2018-12-07T02:33:09.149Z,99328.09
2018-12-07T02:35:37.445Z,99333.41
2018-12-07T02:38:05.634Z,99329.81
2018-12-07T02:40:33.892Z,99323.60
2018-12-07T02:43:02.769Z,99319.84
2018-12-07T02:45:31.047Z,99315.93
2018-12-07T02:47:59.237Z,99313.12
2018-12-07T02:50:27.518Z,99312.58
2018-12-07T02:52:55.800Z,99310.42
2018-12-07T02:55:24.030Z,99316.72
2018-12-07T02:57:52.245Z,99311.98
2018-12-07T03:00:20.421Z,99309.45
2018-12-07T03:02:48.696Z,99311.21
2018-12-07T03:05:16.973Z,99300.84
2018-12-07T03:07:45.264Z,99287.91
2018-12-07T03:10:13.512Z,99281.61
2018-12-07T03:12:41.781Z,99267.92
2018-12-07T03:15:10.068Z,99266.98
2018-12-07T03:17:38.236Z,99270.23
2018-12-07T03:20:06.515Z,99273.36
2018-12-07T03:22:35.106Z,99264.48
2018-12-07T03:25:03.378Z,99264.39
2018-12-07T03:27:31.566Z,99263.06
2018-12-07T03:29:59.734Z,99255.41
2018-12-07T03:32:27.929Z,99253.13
2018-12-07T03:34:56.190Z,99253.92
2018-12-07T03:37:24.437Z,99254.94
2018-12-07T03:39:52.626Z,99247.16
2018-12-07T03:42:20.895Z,99242.17
2018-12-07T03:44:49.080Z,99237.83
2018-12-07T03:47:17.348Z,99232.71
2018-12-07T03:49:45.513Z,99231.35
2018-12-07T03:52:13.709Z,99227.95
2018-12-07T03:54:41.886Z,99225.33
2018-12-07T03:57:10.131Z,99221.42
2018-12-07T03:59:38.324Z,99215.13
2018-12-07T04:02:06.700Z,99209.94
2018-12-07T04:04:34.919Z,99209.05
2018-12-07T04:07:03.664Z,99214.00
2018-12-07T04:09:32.009Z,99207.56
2018-12-07T04:12:01.052Z,99204.28
2018-12-07T04:14:29.304Z,99205.10
2018-12-07T04:16:57.590Z,99200.49
2018-12-07T04:19:25.850Z,99189.31
2018-12-07T04:21:54.126Z,99196.39
2018-12-07T04:24:22.769Z,99198.27
2018-12-07T04:26:50.940Z,99198.42
2018-12-07T04:29:19.118Z,99194.59
2018-12-07T04:31:48.414Z,99195.18
2018-12-07T04:34:16.589Z,99184.52
2018-12-07T04:36:44.808Z,99181.89
2018-12-07T04:39:13.137Z,99187.17
2018-12-07T04:41:41.407Z,99187.48
2018-12-07T04:44:09.584Z,99185.73
2018-12-07T04:46:37.810Z,99187.91
2018-12-07T04:49:06.075Z,99175.09
2018-12-07T04:51:34.357Z,99178.50
2018-12-07T04:54:02.550Z,99176.14
2018-12-07T04:56:30.870Z,99172.95
2018-12-07T04:58:59.090Z,99175.06
2018-12-07T05:01:27.470Z,99171.47
2018-12-07T05:03:55.639Z,99167.31
2018-12-07T05:06:24.005Z,99164.83
2018-12-07T05:08:52.213Z,99167.20
2018-12-07T05:11:20.379Z,99156.15
2018-12-07T05:13:49.928Z,99154.03
2018-12-07T05:16:18.241Z,99145.99
2018-12-07T05:18:46.421Z,99134.16
2018-12-07T05:21:14.615Z,99140.29
2018-12-07T05:23:42.885Z,99132.17
2018-12-07T05:26:11.509Z,99132.77
2018-12-07T05:28:39.683Z,99138.34
2018-12-07T05:31:07.894Z,99136.08
2018-12-07T05:33:36.089Z,99133.15
2018-12-07T05:36:04.257Z,99130.22
2018-12-07T05:38:33.294Z,99129.40
2018-12-07T05:41:01.622Z,99130.61
2018-12-07T05:43:30.201Z,99122.64
2018-12-07T05:45:58.577Z,99116.11
2018-12-07T05:48:26.758Z,99112.19
2018-12-07T05:50:54.972Z,99108.47
2018-12-07T05:53:23.197Z,99102.77
2018-12-07T05:55:52.724Z,99100.20
2018-12-07T05:58:24.038Z,99109.37
2018-12-07T06:00:53.234Z,99099.69
2018-12-07T06:03:23.225Z,99106.53
2018-12-07T06:05:53.200Z,99088.03
2018-12-07T06:08:22.793Z,99098.88
2018-12-07T06:10:53.565Z,99093.69
2018-12-07T06:13:25.721Z,99084.75
2018-12-07T06:15:54.225Z,99085.22
2018-12-07T06:18:22.531Z,99077.22
2018-12-07T06:20:50.817Z,99085.30
2018-12-07T06:23:18.995Z,99070.07
2018-12-07T06:25:47.170Z,99067.77
2018-12-07T06:28:15.653Z,99061.05
2018-12-07T06:30:43.833Z,99060.85
2018-12-07T06:33:12.006Z,99053.23
2018-12-07T06:35:40.269Z,99052.85
2018-12-07T06:38:08.501Z,99058.87
2018-12-07T06:40:36.734Z,99054.41
2018-12-07T06:43:04.926Z,99056.69
2018-12-07T06:45:33.104Z,99046.73
2018-12-07T06:48:01.339Z,99053.91
2018-12-07T06:50:29.515Z,99036.19
2018-12-07T06:52:58.254Z,99040.02
2018-12-07T06:55:26.468Z,99036.89
2018-12-07T06:57:54.849Z,99044.31
2018-12-07T07:00:23.140Z,99038.77
2018-12-07T07:02:51.316Z,99035.49
2018-12-07T07:05:19.517Z,99032.09
2018-12-07T07:07:47.713Z,99038.73
2018-12-07T07:10:15.917Z,99036.67
2018-12-07T07:12:44.094Z,99044.62
2018-12-07T07:15:12.262Z,99044.98
2018-12-07T07:17:41.318Z,99043.42
2018-12-07T07:20:09.641Z,99041.23
2018-12-07T07:22:37.824Z,99040.73
2018-12-07T07:25:06.313Z,99032.73
2018-12-07T07:27:34.486Z,99026.17
2018-12-07T07:30:02.866Z,99022.16
2018-12-07T07:32:31.114Z,99024.53
2018-12-07T07:34:59.286Z,99020.86
2018-12-07T07:37:27.478Z,99028.28
2018-12-07T07:39:55.844Z,99019.92
2018-12-07T07:42:25.307Z,99017.63
2018-12-07T07:44:53.513Z,99019.77
2018-12-07T07:47:21.802Z,99018.06
2018-12-07T07:49:50.077Z,99012.63
2018-12-07T07:52:18.341Z,99011.15
2018-12-07T07:54:47.389Z,99010.77
2018-12-07T07:57:15.561Z,99009.39
2018-12-07T07:59:43.778Z,99013.13
2018-12-07T08:02:11.996Z,99014.11
2018-12-07T08:04:40.348Z,99010.56
2018-12-07T08:07:08.875Z,98997.34
2018-12-07T08:09:37.097Z,99007.21
2018-12-07T08:12:05.268Z,99010.68
2018-12-07T08:14:33.478Z,99014.23
2018-12-07T08:17:03.474Z,98993.91
2018-12-07T08:19:32.102Z,98997.10
2018-12-07T08:22:26.900Z,98993.48
2018-12-07T08:24:55.137Z,98981.77
2018-12-07T08:27:23.385Z,98982.75
2018-12-07T08:29:51.553Z,98978.69
2018-12-07T08:32:19.921Z,98982.88
2018-12-07T08:34:48.114Z,98975.65
2018-12-07T08:37:16.870Z,98979.75
2018-12-07T08:39:45.094Z,98971.16
2018-12-07T08:42:22.645Z,98964.53
2018-12-07T08:44:50.920Z,98953.88
2018-12-07T08:47:19.174Z,98954.82
2018-12-07T08:49:56.185Z,98962.42
2018-12-07T08:52:24.826Z,98961.69
2018-12-07T08:54:53.205Z,98951.66
2018-12-07T08:57:21.458Z,98952.25
2018-12-07T08:59:49.714Z,98959.73
2018-12-07T09:02:17.906Z,98946.09
2018-12-07T09:04:46.164Z,98949.98
2018-12-07T09:07:14.480Z,98949.05
2018-12-07T09:09:42.716Z,98929.70
2018-12-07T09:12:10.993Z,98934.38
2018-12-07T09:14:39.181Z,98929.55
2018-12-07T09:17:07.427Z,98926.63
2018-12-07T09:19:36.304Z,98923.16
2018-12-07T09:22:04.615Z,98921.48
2018-12-07T09:24:32.785Z,98906.31
2018-12-07T09:27:01.130Z,98902.33
2018-12-07T09:29:29.322Z,98891.52
2018-12-07T09:31:57.865Z,98890.87
2018-12-07T09:34:26.102Z,98883.03
2018-12-07T09:36:54.261Z,98875.34
2018-12-07T09:39:22.507Z,98878.11
2018-12-07T09:41:52.398Z,98884.39
2018-12-07T09:44:20.992Z,98875.02
2018-12-07T09:46:49.201Z,98866.56
2018-12-07T09:49:17.444Z,98868.39
2018-12-07T09:51:45.698Z,98866.80
2018-12-07T09:54:13.930Z,98868.59
2018-12-07T09:56:42.579Z,98866.45
2018-12-07T09:59:10.788Z,98855.14
2018-12-07T10:01:39.076Z,98846.50
2018-12-07T10:04:07.256Z,98833.56
2018-12-07T10:06:35.421Z,98828.64
2018-12-07T10:09:06.060Z,98835.86
2018-12-07T10:11:34.337Z,98826.08
2018-12-07T10:14:02.518Z,98816.94
2018-12-07T10:16:30.788Z,98813.34
2018-12-07T10:18:58.965Z,98804.53
2018-12-07T10:21:27.236Z,98803.35
2018-12-07T10:23:55.390Z,98785.30
2018-12-07T10:26:23.550Z,98784.84
2018-12-07T10:28:51.751Z,98785.84
2018-12-07T10:31:19.925Z,98786.80
2018-12-07T10:33:48.549Z,98771.52
2018-12-07T10:36:16.713Z,98769.81
2018-12-07T10:38:44.889Z,98757.88
2018-12-07T10:41:13.064Z,98762.34
2018-12-07T10:43:41.293Z,98738.36
2018-12-07T10:46:09.830Z,98744.28
2018-12-07T10:48:37.993Z,98733.88
2018-12-07T10:51:08.185Z,98743.47
2018-12-07T10:53:36.451Z,98731.17
2018-12-07T10:56:04.729Z,98722.48
2018-12-07T10:58:33.257Z,98715.98
2018-12-07T11:01:06.823Z,98705.53
2018-12-07T11:03:40.545Z,98688.41
2018-12-07T11:06:13.046Z,98687.38
2018-12-07T11:08:46.865Z,98674.20
2018-12-07T11:11:20.637Z,98673.73
2018-12-07T11:13:54.765Z,98673.00
2018-12-07T11:16:28.151Z,98662.26
2018-12-07T11:19:01.945Z,98665.60
2018-12-07T11:21:35.495Z,98655.84
2018-12-07T11:24:09.671Z,98658.36
2018-12-07T11:26:43.217Z,98643.38
2018-12-07T11:29:16.915Z,98647.27
2018-12-07T11:31:50.346Z,98645.30
2018-12-07T11:34:24.876Z,98636.40
2018-12-07T11:36:53.208Z,98635.41
2018-12-07T11:39:21.373Z,98618.89
2018-12-07T11:41:49.569Z,98615.77
2018-12-07T11:44:17.815Z,98603.23
2018-12-07T11:46:46.060Z,98599.72
2018-12-07T11:49:14.290Z,98591.16
2018-12-07T11:51:42.468Z,98571.61
2018-12-07T11:54:10.660Z,98565.96
2018-12-07T11:56:38.905Z,98550.77
2018-12-07T11:59:07.686Z,98544.02
2018-12-07T12:01:35.869Z,98539.91
2018-12-07T12:04:04.145Z,98549.91
2018-12-07T12:06:32.321Z,98531.09
2018-12-07T12:09:00.493Z,98525.80
2018-12-07T12:11:30.067Z,98521.22
2018-12-07T12:13:58.282Z,98507.23
2018-12-07T12:16:26.578Z,98507.48
2018-12-07T12:18:54.765Z,98501.67
2018-12-07T12:21:22.995Z,98477.34
2018-12-07T12:23:53.810Z,98470.84
2018-12-07T12:26:21.514Z,98463.36
2018-12-07T12:28:49.676Z,98449.29
2018-12-07T12:31:17.849Z,98446.01
2018-12-07T12:33:46.024Z,98443.27
2018-12-07T12:36:17.232Z,98432.15
2018-12-07T12:38:44.387Z,98424.80
2018-12-07T12:41:12.682Z,98425.78
2018-12-07T12:43:40.869Z,98411.20
2018-12-07T12:46:09.178Z,98409.27
2018-12-07T12:48:38.804Z,98396.74
2018-12-07T12:51:07.117Z,98415.52
2018-12-07T12:53:35.391Z,98415.30
2018-12-07T12:56:03.561Z,98405.30
2018-12-07T12:58:31.803Z,98411.92
2018-12-07T13:00:59.998Z,98406.88
2018-12-07T13:03:28.289Z,98397.34
2018-12-07T13:05:56.557Z,98385.28
2018-12-07T13:08:24.748Z,98376.36
2018-12-07T13:10:53.017Z,98361.18
2018-12-07T13:13:22.001Z,98357.94
2018-12-07T13:15:50.178Z,98367.59
2018-12-07T13:18:18.369Z,98359.86
2018-12-07T13:20:46.552Z,98349.14
2018-12-07T13:23:14.719Z,98328.66
2018-12-07T13:25:43.360Z,98328.05
2018-12-07T13:28:11.536Z,98308.88
2018-12-07T13:30:39.840Z,98303.72
2018-12-07T13:33:08.128Z,98287.95
2018-12-07T13:35:36.379Z,98283.12
2018-12-07T13:38:04.596Z,98271.58
2018-12-07T13:40:32.757Z,98256.77
2018-12-07T13:43:00.931Z,98257.11
2018-12-07T13:45:29.333Z,98264.72
2018-12-07T13:47:57.793Z,98260.97
2018-12-07T13:50:42.567Z,98249.55
2018-12-07T13:53:10.946Z,98255.33
2018-12-07T13:55:39.319Z,98257.14
2018-12-07T13:58:07.918Z,98235.58
2018-12-07T14:00:36.172Z,98229.78
2018-12-07T14:03:04.672Z,98218.83
2018-12-07T14:05:33.234Z,98225.80
2018-12-07T14:08:01.553Z,98217.85
2018-12-07T14:10:29.949Z,98216.16
2018-12-07T14:12:58.247Z,98211.58
2018-12-07T14:15:26.780Z,98217.95
2018-12-07T14:17:55.190Z,98201.05
2018-12-07T14:20:23.642Z,98187.37
2018-12-07T14:22:52.185Z,98162.10
2018-12-07T14:25:20.643Z,98177.17
2018-12-07T14:27:48.968Z,98183.34
2018-12-07T14:30:17.421Z,98159.37
2018-12-07T14:32:45.767Z,98164.17
2018-12-07T14:35:14.041Z,98145.41
2018-12-07T14:37:42.591Z,98145.53
2018-12-07T14:40:11.271Z,98144.82
2018-12-07T14:42:39.462Z,98146.54
2018-12-07T14:45:08.278Z,98127.26
2018-12-07T14:47:36.586Z,98126.09
2018-12-07T14:50:06.265Z,98133.05
2018-12-07T14:52:34.732Z,98120.41
2018-12-07T14:55:03.146Z,98120.81
2018-12-07T14:57:31.543Z,98104.18
2018-12-07T14:59:59.911Z,98095.27
2018-12-07T15:02:28.226Z,98074.56
2018-12-07T15:04:56.875Z,98073.24
2018-12-07T15:07:25.306Z,98071.70
2018-12-07T15:09:53.508Z,98055.09
2018-12-07T15:12:21.971Z,98055.33
2018-12-07T15:14:50.419Z,98047.50
2018-12-07T15:17:18.806Z,98040.06
2018-12-07T15:19:47.081Z,98034.86
2018-12-07T15:22:15.480Z,98029.59
2018-12-07T15:24:43.812Z,98033.33
2018-12-07T15:27:12.067Z,98021.05
2018-12-07T15:29:41.348Z,98016.86
2018-12-07T15:32:09.793Z,98007.09
2018-12-07T15:34:38.066Z,98002.06
2018-12-07T15:37:06.464Z,97990.38
2018-12-07T15:39:34.958Z,97988.58
2018-12-07T15:42:03.799Z,97971.98
2018-12-07T15:44:32.400Z,97979.92
2018-12-07T15:47:00.852Z,97975.72
2018-12-07T15:49:29.455Z,97977.52
2018-12-07T15:51:57.862Z,97969.92
2018-12-07T15:54:26.856Z,97958.75
2018-12-07T15:56:55.185Z,97956.47
2018-12-07T15:59:23.486Z,97952.37
2018-12-07T16:01:51.883Z,97949.48
2018-12-07T16:04:20.143Z,97933.36
2018-12-07T16:06:49.578Z,97930.72
2018-12-07T16:09:18.070Z,97923.25
2018-12-07T16:11:46.609Z,97914.22
2018-12-07T16:14:15.061Z,97913.13
2018-12-07T16:16:43.572Z,97911.67
2018-12-07T16:19:11.849Z,97898.91
2018-12-07T16:21:40.271Z,97887.71
2018-12-07T16:24:08.661Z,97869.17
2018-12-07T16:26:37.092Z,97860.73
2018-12-07T16:29:06.103Z,97871.59
2018-12-07T16:31:34.728Z,97864.97
2018-12-07T16:34:02.979Z,97868.33
2018-12-07T16:36:31.244Z,97869.52
2018-12-07T16:38:59.900Z,97856.28
2018-12-07T16:41:28.179Z,97859.02
2018-12-07T16:43:56.870Z,97855.67
2018-12-07T16:46:25.493Z,97848.30
2018-12-07T16:48:54.010Z,97856.38
2018-12-07T16:51:22.895Z,97860.68
2018-12-07T16:53:51.670Z,97855.29
2018-12-07T16:56:20.580Z,97845.65
2018-12-07T16:58:48.949Z,97852.73
2018-12-07T17:01:17.745Z,97852.23
2018-12-07T17:03:51.534Z,97852.46
2018-12-07T17:06:20.010Z,97848.11
2018-12-07T17:08:49.087Z,97846.41
2018-12-07T17:11:17.422Z,97850.95
2018-12-07T17:13:45.711Z,97868.88
2018-12-07T17:16:14.291Z,97976.15
2018-12-07T17:18:42.946Z,98021.18
2018-12-07T17:21:11.615Z,98018.31
2018-12-07T17:23:40.271Z,98009.98
2018-12-07T17:26:08.912Z,98012.33
2018-12-07T17:28:37.715Z,98026.95
2018-12-07T17:31:06.214Z,98033.13
2018-12-07T17:33:34.629Z,98027.72
2018-12-07T17:36:03.247Z,98046.73
2018-12-07T17:38:31.957Z,98043.36
2018-12-07T17:41:00.541Z,98056.15
2018-12-07T17:43:29.427Z,98084.69
2018-12-07T17:45:58.120Z,98084.27
2018-12-07T17:48:26.475Z,98075.74
2018-12-07T17:50:54.657Z,98083.31
2018-12-07T17:53:23.642Z,98080.06
2018-12-07T17:55:52.953Z,98094.52
2018-12-07T17:58:21.784Z,98089.50
2018-12-07T18:00:51.767Z,98102.66
2018-12-07T18:03:19.975Z,98105.99
2018-12-07T18:05:48.202Z,98102.50
2018-12-07T18:08:16.784Z,98107.20
2018-12-07T18:10:45.908Z,98115.41
2018-12-07T18:13:14.385Z,98123.41
2018-12-07T18:15:43.018Z,98127.60
2018-12-07T18:18:11.547Z,98133.64
2018-12-07T18:20:39.976Z,98133.17
2018-12-07T18:23:09.690Z,98132.91
2018-12-07T18:25:38.333Z,98144.47
2018-12-07T18:28:07.702Z,98155.52
2018-12-07T18:30:37.072Z,98152.85
2018-12-07T18:33:05.627Z,98148.58
2018-12-07T18:35:34.111Z,98154.91
2018-12-07T18:38:02.893Z,98171.70
2018-12-07T18:40:31.188Z,98178.54
2018-12-07T18:43:00.155Z,98173.17
2018-12-07T18:45:28.494Z,98167.23
2018-12-07T18:47:57.009Z,98168.13
2018-12-07T18:50:25.645Z,98169.22
2018-12-07T18:52:54.355Z,98165.65
2018-12-07T18:55:23.229Z,98180.05
2018-12-07T18:57:52.155Z,98183.80
2018-12-07T19:00:20.975Z,98208.88
2018-12-07T19:02:49.351Z,98229.99
2018-12-07T19:05:17.525Z,98235.08
2018-12-07T19:07:45.841Z,98241.91
2018-12-07T19:10:14.270Z,98243.15
2018-12-07T19:12:42.709Z,98255.22
2018-12-07T19:15:11.110Z,98241.79
2018-12-07T19:17:39.675Z,98263.97
2018-12-07T19:20:08.580Z,98262.84
2018-12-07T19:22:37.332Z,98275.24
2018-12-07T19:25:06.709Z,98285.91
2018-12-07T19:27:35.213Z,98286.53
2018-12-07T19:30:03.752Z,98305.99
2018-12-07T19:32:32.332Z,98312.20
2018-12-07T19:35:00.677Z,98317.69
2018-12-07T19:37:29.251Z,98322.78
2018-12-07T19:39:57.931Z,98327.98
2018-12-07T19:42:26.456Z,98324.62
2018-12-07T19:44:55.119Z,98332.42
2018-12-07T19:47:23.876Z,98347.41
2018-12-07T19:49:53.053Z,98346.09
2018-12-07T19:52:22.642Z,98360.38
2018-12-07T19:54:51.996Z,98361.27
2018-12-07T19:57:21.030Z,98361.05
2018-12-07T19:59:51.255Z,98370.95
2018-12-07T20:02:21.498Z,98372.45
2018-12-07T20:04:50.226Z,98372.63
2018-12-07T20:07:20.476Z,98385.70
2018-12-07T20:09:49.777Z,98393.89
2018-12-07T20:12:19.890Z,98401.52
2018-12-07T20:14:48.675Z,98419.61
2018-12-07T20:17:17.318Z,98417.97
2018-12-07T20:19:46.128Z,98420.14
2018-12-07T20:22:15.001Z,98419.11
2018-12-07T20:24:44.940Z,98423.64
2018-12-07T20:27:13.307Z,98435.50
2018-12-07T20:29:42.379Z,98438.20
2018-12-07T20:32:11.362Z,98434.47
2018-12-07T20:34:39.738Z,98450.53
2018-12-07T20:37:08.642Z,98451.77
2018-12-07T20:39:37.198Z,98461.28
2018-12-07T20:42:05.926Z,98473.53
2018-12-07T20:44:34.247Z,98480.59
2018-12-07T20:47:02.944Z,98481.43
2018-12-07T20:49:31.668Z,98490.84
2018-12-07T20:52:00.679Z,98484.26
2018-12-07T20:54:29.103Z,98483.78
2018-12-07T20:56:57.433Z,98491.11
2018-12-07T20:59:25.897Z,98500.25
2018-12-07T21:01:54.654Z,98508.93
2018-12-07T21:04:30.883Z,98517.70
2018-12-07T21:08:11.571Z,98523.63
2018-12-07T21:11:07.828Z,98517.01
2018-12-07T21:14:44.715Z,98528.95
2018-12-07T21:17:26.105Z,98525.95
2018-12-07T21:20:02.339Z,98532.27
2018-12-07T21:22:30.721Z,98523.80
2018-12-07T21:24:59.197Z,98524.17
2018-12-07T21:27:27.844Z,98533.40
2018-12-07T21:33:20.785Z,98550.23
2018-12-07T21:36:40.482Z,98556.37
2018-12-07T21:39:32.143Z,98567.08
2018-12-07T21:42:01.008Z,98575.36
2018-12-07T21:44:29.281Z,98571.41
2018-12-07T21:46:58.423Z,98575.94
2018-12-07T21:49:30.030Z,98576.66
2018-12-07T21:52:13.816Z,98572.35
2018-12-07T21:54:42.349Z,98565.47
2018-12-07T21:57:11.154Z,98563.33
2018-12-07T21:59:40.190Z,98587.96
2018-12-07T22:02:08.767Z,98583.15
2018-12-07T22:04:37.883Z,98599.52
2018-12-07T22:07:07.244Z,98604.21
2018-12-07T22:09:35.770Z,98602.23
2018-12-07T22:12:05.726Z,98605.44
2018-12-07T22:14:34.925Z,98611.36
2018-12-07T22:17:03.925Z,98624.62
2018-12-07T22:19:32.212Z,98629.53
2018-12-07T22:22:00.904Z,98628.37
2018-12-07T22:24:29.234Z,98618.50
2018-12-07T22:26:57.543Z,98617.03
2018-12-07T22:29:25.971Z,98621.44
2018-12-07T22:31:54.262Z,98633.34
2018-12-07T22:34:22.884Z,98638.70
2018-12-07T22:36:51.462Z,98631.92
2018-12-07T22:39:21.510Z,98634.09
2018-12-07T22:41:50.621Z,98636.42
2018-12-07T22:44:19.265Z,98644.72
2018-12-07T22:46:47.678Z,98649.87
2018-12-07T22:49:16.011Z,98659.20
2018-12-07T22:51:45.538Z,98655.62
2018-12-07T22:54:13.770Z,98658.84
2018-12-07T22:56:42.146Z,98660.83
2018-12-07T22:59:10.320Z,98653.29
2018-12-07T23:01:38.597Z,98661.96
2018-12-07T23:04:06.859Z,98670.17
2018-12-07T23:06:35.056Z,98682.03
2018-12-07T23:09:04.273Z,98674.32
2018-12-07T23:11:32.539Z,98669.16
2018-12-07T23:14:00.711Z,98677.62
2018-12-07T23:16:30.056Z,98676.66
2018-12-07T23:18:58.480Z,98676.60
2018-12-07T23:21:26.802Z,98678.67
2018-12-07T23:23:55.062Z,98682.89
2018-12-07T23:26:23.309Z,98692.61
2018-12-07T23:28:51.641Z,98688.06
2018-12-07T23:31:19.945Z,98680.91
2018-12-07T23:33:48.356Z,98686.64
2018-12-07T23:36:16.620Z,98693.31
2018-12-07T23:38:44.785Z,98695.44
2018-12-07T23:41:13.832Z,98699.48
2018-12-07T23:43:42.051Z,98684.55
2018-12-07T23:46:10.325Z,98693.86
2018-12-07T23:48:38.517Z,98696.39
2018-12-07T23:51:06.770Z,98702.52
2018-12-07T23:53:35.428Z,98689.62
2018-12-07T23:56:03.741Z,98699.72
2018-12-07T23:58:32.010Z,98697.92
